Dades meteomassalio
Diari Summary for Marc 3, 2018 Units:  Both    English   Metric
« Previous Day
Next Day »
Diari Semanal Mensual Anual Personalitzat
  Maxima: Minima: Mijana:
Temperatura: TemperatureC °F /  -17.8 °C 3.9 °F /  -15.6 °C 11 °F /  -11.7 °C
Rosada: DewpointC °F /  -17.8 °C -0.9 °F /  -18.3 °C 3.9 °F /  -15.6 °C
Humitat: Humidity % 40 % 63 %
Velocitat del vent: WindSpeedKMH mph /  0 km/h - 13.6 mph /  21.9 km/h
Racha vent: WindSpeedGustKMH mph /  0 km/h - -
Vent:- - WNW
Pressio: PressurehPa in /  0 hPa 997.2 in /  33765.2 hPa -
Pluja: 0.0 in /  0 mm    
Historical Graphs
 
 
Tabular Data for Marc 3, 2018
Time Temperature Dew Point Pressure Wind Wind Speed Wind Gust Humidity Rainfall Rate (Hourly) solar Conditions
TemperatureC °F /  -17.8 °C DewpointC °F /  -17.8 °C PressurehPa in /  0 hPa Calm     Humidity % HourlyPrecipMM in /  0 mm SolarRadiationWatts/m^2 W/m2 Conditions
00:03 6.7 °F /  -14.1 °C 4.7 °F /  -15.2 °C 998.9 in /  33822.8 hPa Calm     87 % 0.0 in /  0 mm 0.0 W/m2 RA
00:08 6.7 °F /  -14.1 °C 4.8 °F /  -15.1 °C 998.2 in /  33799.1 hPa Calm     88 % 0.0 in /  0 mm 0.0 W/m2 CLR
00:13 6.7 °F /  -14.1 °C 4.8 °F /  -15.1 °C 997.9 in /  33788.9 hPa Calm     88 % 0.0 in /  0 mm 0.0 W/m2 CLR
00:18 6.7 °F /  -14.1 °C 5.0 °F /  -15 °C 997.5 in /  33775.4 hPa Calm     89 % 0.0 in /  0 mm 0.0 W/m2 CLR
00:23 6.7 °F /  -14.1 °C 5.0 °F /  -15 °C 997.2 in /  33765.2 hPa Calm     89 % 0.0 in /  0 mm 0.0 W/m2 CLR
00:28 6.7 °F /  -14.1 °C 5.0 °F /  -15 °C 997.5 in /  33775.4 hPa Calm     89 % 0.0 in /  0 mm 0.0 W/m2 CLR
00:33 6.7 °F /  -14.1 °C 5.2 °F /  -14.9 °C 997.5 in /  33775.4 hPa Calm     90 % 0.0 in /  0 mm 0.0 W/m2 CLR
00:38 6.7 °F /  -14.1 °C 5.0 °F /  -15 °C 997.5 in /  33775.4 hPa Calm     89 % 0.0 in /  0 mm 0.0 W/m2 CLR
00:43 6.7 °F /  -14.1 °C 4.8 °F /  -15.1 °C 997.5 in /  33775.4 hPa SW 1.9 mph /  3.1 km/h 1.9 mph /  3.1 km/h 88 % 1.0 in /  25.4 mm 0.0 W/m2 CLR
00:48 6.7 °F /  -14.1 °C 4.8 °F /  -15.1 °C 997.9 in /  33788.9 hPa WNW 7.4 mph /  11.9 km/h 7.4 mph /  11.9 km/h 88 % 0.8 in /  20.32 mm 0.0 W/m2 CLR
00:53 6.7 °F /  -14.1 °C 4.8 °F /  -15.1 °C 997.9 in /  33788.9 hPa Calm     88 % 0.5 in /  12.7 mm 0.0 W/m2 CLR
00:58 6.7 °F /  -14.1 °C 4.8 °F /  -15.1 °C 998.2 in /  33799.1 hPa WNW 1.9 mph /  3.1 km/h   88 % 0.3 in /  7.62 mm 0.0 W/m2 CLR
01:03 6.1 °F /  -14.4 °C 4.1 °F /  -15.5 °C 997.9 in /  33788.9 hPa Calm     87 % 0.0 in /  0 mm 0.0 W/m2 CLR
01:08 6.1 °F /  -14.4 °C 3.9 °F /  -15.6 °C 997.9 in /  33788.9 hPa Calm     86 % 0.0 in /  0 mm 0.0 W/m2 CLR
01:13 6.1 °F /  -14.4 °C 4.1 °F /  -15.5 °C 997.9 in /  33788.9 hPa West 7.4 mph /  11.9 km/h 7.4 mph /  11.9 km/h 87 % 0.0 in /  0 mm 0.0 W/m2 CLR
01:18 6.1 °F /  -14.4 °C 4.4 °F /  -15.3 °C 998.2 in /  33799.1 hPa WNW 5.6 mph /  9 km/h 5.6 mph /  9 km/h 89 % 0.0 in /  0 mm 0.0 W/m2 CLR
01:23 6.1 °F /  -14.4 °C 4.6 °F /  -15.2 °C 998.2 in /  33799.1 hPa WNW 5.6 mph /  9 km/h 5.6 mph /  9 km/h 90 % 0.0 in /  0 mm 0.0 W/m2 CLR
01:28 6.1 °F /  -14.4 °C 4.4 °F /  -15.3 °C 998.2 in /  33799.1 hPa Calm     89 % 0.0 in /  0 mm 0.0 W/m2 CLR
01:33 6.1 °F /  -14.4 °C 4.4 °F /  -15.3 °C 998.2 in /  33799.1 hPa Calm     89 % 0.0 in /  0 mm 0.0 W/m2 CLR
01:38 6.1 °F /  -14.4 °C 4.4 °F /  -15.3 °C 998.2 in /  33799.1 hPa WNW 3.2 mph /  5.1 km/h 3.2 mph /  5.1 km/h 89 % 0.0 in /  0 mm 0.0 W/m2 CLR
01:43 6.1 °F /  -14.4 °C 4.6 °F /  -15.2 °C 997.9 in /  33788.9 hPa West 6.4 mph /  10.3 km/h 6.4 mph /  10.3 km/h 90 % 0.0 in /  0 mm 0.0 W/m2 CLR
01:48 6.1 °F /  -14.4 °C 4.6 °F /  -15.2 °C 998.2 in /  33799.1 hPa West 6.4 mph /  10.3 km/h 6.4 mph /  10.3 km/h 90 % 0.0 in /  0 mm 0.0 W/m2 CLR
01:53 6.1 °F /  -14.4 °C 4.8 °F /  -15.1 °C 998.2 in /  33799.1 hPa WNW 11.3 mph /  18.2 km/h 11.3 mph /  18.2 km/h 91 % 0.0 in /  0 mm 0.0 W/m2 CLR
01:58 5.6 °F /  -14.7 °C 4.1 °F /  -15.5 °C 998.2 in /  33799.1 hPa WNW 18.5 mph /  29.8 km/h 18.5 mph /  29.8 km/h 90 % 0.0 in /  0 mm 0.0 W/m2 CLR
02:03 5.6 °F /  -14.7 °C 3.6 °F /  -15.8 °C 998.2 in /  33799.1 hPa WNW 18.5 mph /  29.8 km/h 18.5 mph /  29.8 km/h 87 % 0.0 in /  0 mm 0.0 W/m2 CLR
02:08 5.0 °F /  -15 °C 2.5 °F /  -16.4 °C 998.2 in /  33799.1 hPa WNW 16.7 mph /  26.9 km/h 16.7 mph /  26.9 km/h 84 % 0.0 in /  0 mm 0.0 W/m2 CLR
02:13 5.0 °F /  -15 °C 1.8 °F /  -16.8 °C 997.9 in /  33788.9 hPa NW 14.8 mph /  23.8 km/h 14.8 mph /  23.8 km/h 80 % 0.0 in /  0 mm 0.0 W/m2 CLR
02:18 4.4 °F /  -15.3 °C 0.6 °F /  -17.4 °C 997.9 in /  33788.9 hPa NW 20.4 mph /  32.8 km/h 20.4 mph /  32.8 km/h 76 % 0.0 in /  0 mm 0.0 W/m2 CLR
02:23 4.4 °F /  -15.3 °C 0.0 °F /  -17.8 °C 997.9 in /  33788.9 hPa NW 24.1 mph /  38.8 km/h 24.1 mph /  38.8 km/h 73 % 0.0 in /  0 mm 0.0 W/m2 CLR
02:28 4.4 °F /  -15.3 °C -0.2 °F /  -17.9 °C 998.2 in /  33799.1 hPa NW 18.5 mph /  29.8 km/h 18.5 mph /  29.8 km/h 72 % 0.0 in /  0 mm 0.0 W/m2 CLR
02:33 5.0 °F /  -15 °C 0.2 °F /  -17.7 °C 998.2 in /  33799.1 hPa NW 20.4 mph /  32.8 km/h 20.4 mph /  32.8 km/h 71 % 0.0 in /  0 mm 0.0 W/m2 CLR
02:38 6.1 °F /  -14.4 °C 1.1 °F /  -17.2 °C 998.2 in /  33799.1 hPa WNW 18.5 mph /  29.8 km/h 18.5 mph /  29.8 km/h 70 % 0.0 in /  0 mm 0.0 W/m2 CLR
02:43 6.1 °F /  -14.4 °C 1.1 °F /  -17.2 °C 998.2 in /  33799.1 hPa NW 18.5 mph /  29.8 km/h 18.5 mph /  29.8 km/h 70 % 0.0 in /  0 mm 0.0 W/m2 CLR
02:48 6.7 °F /  -14.1 °C 1.6 °F /  -16.9 °C 998.2 in /  33799.1 hPa WNW 20.4 mph /  32.8 km/h 20.4 mph /  32.8 km/h 70 % 0.0 in /  0 mm 0.0 W/m2 CLR
02:53 7.8 °F /  -13.4 °C 2.4 °F /  -16.4 °C 998.2 in /  33799.1 hPa WNW 22.2 mph /  35.7 km/h 22.2 mph /  35.7 km/h 69 % 0.0 in /  0 mm 0.0 W/m2 CLR
02:58 7.8 °F /  -13.4 °C 2.4 °F /  -16.4 °C 997.9 in /  33788.9 hPa NW 24.1 mph /  38.8 km/h 24.1 mph /  38.8 km/h 69 % 0.0 in /  0 mm 0.0 W/m2 CLR
03:03 7.8 °F /  -13.4 °C 2.4 °F /  -16.4 °C 997.9 in /  33788.9 hPa WNW 20.9 mph /  33.6 km/h 20.9 mph /  33.6 km/h 69 % 0.0 in /  0 mm 0.0 W/m2 CLR
03:08 7.8 °F /  -13.4 °C 2.4 °F /  -16.4 °C 997.9 in /  33788.9 hPa NNW 22.2 mph /  35.7 km/h 22.2 mph /  35.7 km/h 69 % 0.0 in /  0 mm 0.0 W/m2 CLR
03:13 7.2 °F /  -13.8 °C 1.9 °F /  -16.7 °C 997.9 in /  33788.9 hPa NW 22.2 mph /  35.7 km/h 22.2 mph /  35.7 km/h 69 % 0.0 in /  0 mm 0.0 W/m2 CLR
03:18 7.8 °F /  -13.4 °C 2.2 °F /  -16.6 °C 997.9 in /  33788.9 hPa NNW 20.4 mph /  32.8 km/h 20.4 mph /  32.8 km/h 68 % 0.0 in /  0 mm 0.0 W/m2 CLR
03:23 7.8 °F /  -13.4 °C 2.2 °F /  -16.6 °C 997.9 in /  33788.9 hPa WNW 14.8 mph /  23.8 km/h 14.8 mph /  23.8 km/h 68 % 0.0 in /  0 mm 0.0 W/m2 CLR
03:28 7.8 °F /  -13.4 °C 2.4 °F /  -16.4 °C 997.9 in /  33788.9 hPa WNW 18.5 mph /  29.8 km/h 18.5 mph /  29.8 km/h 69 % 0.0 in /  0 mm 0.0 W/m2 CLR
03:33 8.3 °F /  -13.2 °C 3.2 °F /  -16 °C 997.5 in /  33775.4 hPa WNW 8.0 mph /  12.9 km/h 8.0 mph /  12.9 km/h 70 % 0.0 in /  0 mm 0.0 W/m2 CLR
03:38 8.3 °F /  -13.2 °C 3.6 °F /  -15.8 °C 997.5 in /  33775.4 hPa West 20.4 mph /  32.8 km/h 20.4 mph /  32.8 km/h 72 % 0.0 in /  0 mm 0.0 W/m2 CLR
03:43 7.8 °F /  -13.4 °C 2.8 °F /  -16.2 °C 997.5 in /  33775.4 hPa WNW 18.5 mph /  29.8 km/h 18.5 mph /  29.8 km/h 71 % 0.0 in /  0 mm 0.0 W/m2 CLR
03:48 8.3 °F /  -13.2 °C 3.2 °F /  -16 °C 997.5 in /  33775.4 hPa WNW 16.7 mph /  26.9 km/h 16.7 mph /  26.9 km/h 70 % 0.0 in /  0 mm 0.0 W/m2 CLR
03:53 7.8 °F /  -13.4 °C 2.8 °F /  -16.2 °C 997.5 in /  33775.4 hPa West 20.4 mph /  32.8 km/h 20.4 mph /  32.8 km/h 71 % 0.0 in /  0 mm 0.0 W/m2 CLR
03:58 7.8 °F /  -13.4 °C 2.7 °F /  -16.3 °C 997.5 in /  33775.4 hPa WNW 14.8 mph /  23.8 km/h 14.8 mph /  23.8 km/h 70 % 0.0 in /  0 mm 0.0 W/m2 CLR
04:03 6.7 °F /  -14.1 °C 1.4 °F /  -17 °C 997.5 in /  33775.4 hPa NW 18.5 mph /  29.8 km/h 18.5 mph /  29.8 km/h 69 % 0.0 in /  0 mm 0.0 W/m2 CLR
04:09 6.1 °F /  -14.4 °C 0.7 °F /  -17.4 °C 997.5 in /  33775.4 hPa WNW 16.7 mph /  26.9 km/h 16.7 mph /  26.9 km/h 68 % 0.0 in /  0 mm 0.0 W/m2 CLR
04:14 6.1 °F /  -14.4 °C 0.8 °F /  -17.3 °C 997.5 in /  33775.4 hPa Calm     69 % 0.0 in /  0 mm 0.0 W/m2 CLR
04:19 5.6 °F /  -14.7 °C 0.7 °F /  -17.4 °C 997.5 in /  33775.4 hPa Calm     71 % 0.0 in /  0 mm 0.0 W/m2 CLR
04:24 5.0 °F /  -15 °C 0.6 °F /  -17.4 °C 997.9 in /  33788.9 hPa Calm     73 % 0.0 in /  0 mm 0.0 W/m2 CLR
04:29 5.0 °F /  -15 °C 0.7 °F /  -17.4 °C 997.9 in /  33788.9 hPa Calm     74 % 0.0 in /  0 mm 0.0 W/m2 CLR
04:34 4.4 °F /  -15.3 °C 0.4 °F /  -17.6 °C 998.2 in /  33799.1 hPa Calm     75 % 0.0 in /  0 mm 0.0 W/m2 CLR
04:39 4.4 °F /  -15.3 °C 0.6 °F /  -17.4 °C 998.2 in /  33799.1 hPa Calm     76 % 0.0 in /  0 mm 0.0 W/m2 CLR
04:44 4.4 °F /  -15.3 °C 0.9 °F /  -17.3 °C 998.2 in /  33799.1 hPa Calm     78 % 0.0 in /  0 mm 0.0 W/m2 CLR
04:49 4.4 °F /  -15.3 °C 0.9 °F /  -17.3 °C 998.2 in /  33799.1 hPa Calm     78 % 0.0 in /  0 mm 0.0 W/m2 CLR
04:54 4.4 °F /  -15.3 °C 0.8 °F /  -17.3 °C 998.2 in /  33799.1 hPa Calm     77 % 0.0 in /  0 mm 0.0 W/m2 CLR
04:59 3.9 °F /  -15.6 °C 0.1 °F /  -17.7 °C 998.2 in /  33799.1 hPa NW 11.1 mph /  17.9 km/h 11.1 mph /  17.9 km/h 76 % 0.0 in /  0 mm 0.0 W/m2 CLR
05:04 3.9 °F /  -15.6 °C -0.7 °F /  -18.2 °C 998.2 in /  33799.1 hPa NNW 14.8 mph /  23.8 km/h 14.8 mph /  23.8 km/h 72 % 0.0 in /  0 mm 0.0 W/m2 CLR
05:09 3.9 °F /  -15.6 °C -0.9 °F /  -18.3 °C 998.2 in /  33799.1 hPa NNW 18.5 mph /  29.8 km/h 18.5 mph /  29.8 km/h 71 % 0.0 in /  0 mm 0.0 W/m2 CLR
05:14 3.9 °F /  -15.6 °C -0.9 °F /  -18.3 °C 998.5 in /  33809.2 hPa North 16.7 mph /  26.9 km/h 16.7 mph /  26.9 km/h 71 % 0.0 in /  0 mm 0.0 W/m2 CLR
05:19 4.4 °F /  -15.3 °C -0.2 °F /  -17.9 °C 998.5 in /  33809.2 hPa NNW 16.7 mph /  26.9 km/h 16.7 mph /  26.9 km/h 72 % 0.0 in /  0 mm 0.0 W/m2 CLR
05:24 4.4 °F /  -15.3 °C -0.2 °F /  -17.9 °C 998.5 in /  33809.2 hPa NNW 14.8 mph /  23.8 km/h 14.8 mph /  23.8 km/h 72 % 0.0 in /  0 mm 0.0 W/m2 CLR
05:29 4.4 °F /  -15.3 °C 0.0 °F /  -17.8 °C 998.5 in /  33809.2 hPa North 14.8 mph /  23.8 km/h 14.8 mph /  23.8 km/h 73 % 0.0 in /  0 mm 0.0 W/m2 CLR
05:34 4.4 °F /  -15.3 °C 0.0 °F /  -17.8 °C 998.9 in /  33822.8 hPa NNW 16.7 mph /  26.9 km/h 16.7 mph /  26.9 km/h 73 % 0.0 in /  0 mm 0.0 W/m2 CLR
05:39 5.0 °F /  -15 °C 0.7 °F /  -17.4 °C 998.9 in /  33822.8 hPa NW 13.0 mph /  20.9 km/h 13.0 mph /  20.9 km/h 74 % 0.0 in /  0 mm 0.0 W/m2 CLR
05:44 5.6 °F /  -14.7 °C 1.1 °F /  -17.2 °C 998.9 in /  33822.8 hPa NW 14.8 mph /  23.8 km/h 14.8 mph /  23.8 km/h 73 % 0.0 in /  0 mm 0.0 W/m2 CLR
05:49 6.1 °F /  -14.4 °C 1.4 °F /  -17 °C 998.9 in /  33822.8 hPa NW 16.7 mph /  26.9 km/h 16.7 mph /  26.9 km/h 72 % 0.0 in /  0 mm 0.0 W/m2 CLR
05:54 7.2 °F /  -13.8 °C 2.3 °F /  -16.5 °C 999.2 in /  33832.9 hPa NNW 14.8 mph /  23.8 km/h 14.8 mph /  23.8 km/h 71 % 0.0 in /  0 mm 0.0 W/m2 CLR
05:59 8.3 °F /  -13.2 °C 3.6 °F /  -15.8 °C 999.5 in /  33843.1 hPa NNW 11.1 mph /  17.9 km/h 11.1 mph /  17.9 km/h 72 % 0.0 in /  0 mm 0.0 W/m2 CLR
06:04 8.3 °F /  -13.2 °C 3.6 °F /  -15.8 °C 999.5 in /  33843.1 hPa NNW 11.3 mph /  18.2 km/h 11.3 mph /  18.2 km/h 72 % 0.0 in /  0 mm 0.0 W/m2 CLR
06:09 8.3 °F /  -13.2 °C 3.8 °F /  -15.7 °C 999.5 in /  33843.1 hPa NNW 16.7 mph /  26.9 km/h 16.7 mph /  26.9 km/h 73 % 0.0 in /  0 mm 0.0 W/m2 CLR
06:14 7.8 °F /  -13.4 °C 3.2 °F /  -16 °C 999.5 in /  33843.1 hPa NNW 20.4 mph /  32.8 km/h 20.4 mph /  32.8 km/h 73 % 0.0 in /  0 mm 0.0 W/m2 CLR
06:19 7.8 °F /  -13.4 °C 3.2 °F /  -16 °C 999.9 in /  33856.6 hPa North 19.3 mph /  31.1 km/h 19.3 mph /  31.1 km/h 73 % 0.0 in /  0 mm 0.0 W/m2 CLR
06:24 8.3 °F /  -13.2 °C 3.8 °F /  -15.7 °C 999.9 in /  33856.6 hPa NNW 24.1 mph /  38.8 km/h 24.1 mph /  38.8 km/h 73 % 0.0 in /  0 mm 0.0 W/m2 CLR
06:29 8.3 °F /  -13.2 °C 3.9 °F /  -15.6 °C 999.9 in /  33856.6 hPa NNW 18.5 mph /  29.8 km/h 18.5 mph /  29.8 km/h 74 % 0.0 in /  0 mm 0.0 W/m2 CLR
06:34 8.9 °F /  -12.8 °C 4.5 °F /  -15.3 °C 999.9 in /  33856.6 hPa North 14.8 mph /  23.8 km/h 14.8 mph /  23.8 km/h 74 % 0.0 in /  0 mm 0.0 W/m2 CLR
06:39 8.9 °F /  -12.8 °C 4.5 °F /  -15.3 °C 999.9 in /  33856.6 hPa NNW 18.5 mph /  29.8 km/h 18.5 mph /  29.8 km/h 74 % 0.0 in /  0 mm 0.0 W/m2 CLR
06:44 8.9 °F /  -12.8 °C 4.7 °F /  -15.2 °C 1000.2 in /  33866.8 hPa NW 18.5 mph /  29.8 km/h 18.5 mph /  29.8 km/h 75 % 0.0 in /  0 mm 0.0 W/m2 CLR
06:49 8.9 °F /  -12.8 °C 4.5 °F /  -15.3 °C 1000.2 in /  33866.8 hPa NNW 18.5 mph /  29.8 km/h 18.5 mph /  29.8 km/h 74 % 0.0 in /  0 mm 0.0 W/m2 CLR
06:54 8.9 °F /  -12.8 °C 4.3 °F /  -15.4 °C 1000.2 in /  33866.8 hPa NW 18.5 mph /  29.8 km/h 18.5 mph /  29.8 km/h 73 % 0.0 in /  0 mm 0.0 W/m2 CLR
06:59 9.4 °F /  -12.6 °C 4.8 °F /  -15.1 °C 1000.2 in /  33866.8 hPa NW 18.5 mph /  29.8 km/h 18.5 mph /  29.8 km/h 73 % 0.0 in /  0 mm 0.0 W/m2 CLR
07:04 9.4 °F /  -12.6 °C 4.8 °F /  -15.1 °C 1000.2 in /  33866.8 hPa NW 22.2 mph /  35.7 km/h 22.2 mph /  35.7 km/h 73 % 0.0 in /  0 mm 0.0 W/m2 CLR
07:09 9.4 °F /  -12.6 °C 4.4 °F /  -15.3 °C 1000.6 in /  33880.3 hPa NW 24.1 mph /  38.8 km/h 24.1 mph /  38.8 km/h 71 % 0.0 in /  0 mm 0.0 W/m2 CLR
07:14 9.4 °F /  -12.6 °C 4.2 °F /  -15.4 °C 1000.6 in /  33880.3 hPa NW 33.3 mph /  53.6 km/h 33.3 mph /  53.6 km/h 70 % 0.0 in /  0 mm 0.0 W/m2 CLR
07:19 10.0 °F /  -12.2 °C 4.8 °F /  -15.1 °C 1000.2 in /  33866.8 hPa NW 24.1 mph /  38.8 km/h 24.1 mph /  38.8 km/h 70 % 0.0 in /  0 mm 0.0 W/m2 CLR
07:24 10.0 °F /  -12.2 °C 4.8 °F /  -15.1 °C 1000.6 in /  33880.3 hPa WNW 22.2 mph /  35.7 km/h 22.2 mph /  35.7 km/h 70 % 0.0 in /  0 mm 0.0 W/m2 OVC
07:29 10.0 °F /  -12.2 °C 4.8 °F /  -15.1 °C 1000.6 in /  33880.3 hPa NW 22.2 mph /  35.7 km/h 22.2 mph /  35.7 km/h 70 % 0.0 in /  0 mm 0.0 W/m2 OVC
07:34 10.0 °F /  -12.2 °C 4.8 °F /  -15.1 °C 1000.6 in /  33880.3 hPa NW 22.5 mph /  36.2 km/h 22.5 mph /  36.2 km/h 70 % 0.0 in /  0 mm 0.0 W/m2 OVC
07:39 10.0 °F /  -12.2 °C 4.8 °F /  -15.1 °C 1000.9 in /  33890.5 hPa NW 22.5 mph /  36.2 km/h 22.5 mph /  36.2 km/h 70 % 0.0 in /  0 mm 5.0 W/m2 OVC
07:44 10.0 °F /  -12.2 °C 4.8 °F /  -15.1 °C 1000.9 in /  33890.5 hPa NW 22.2 mph /  35.7 km/h 22.2 mph /  35.7 km/h 70 % 0.0 in /  0 mm 9.0 W/m2 BKN
07:49 9.4 °F /  -12.6 °C 4.1 °F /  -15.5 °C 1000.9 in /  33890.5 hPa WNW 27.4 mph /  44.1 km/h 27.4 mph /  44.1 km/h 69 % 0.0 in /  0 mm 14.0 W/m2 BKN
07:54 10.0 °F /  -12.2 °C 4.6 °F /  -15.2 °C 1001.2 in /  33900.6 hPa WNW 30.6 mph /  49.2 km/h 30.6 mph /  49.2 km/h 69 % 0.0 in /  0 mm 16.0 W/m2 BKN
07:59 10.0 °F /  -12.2 °C 4.3 °F /  -15.4 °C 1001.2 in /  33900.6 hPa WNW 25.9 mph /  41.7 km/h 25.9 mph /  41.7 km/h 68 % 0.0 in /  0 mm 21.0 W/m2 BKN
08:04 10.0 °F /  -12.2 °C 4.3 °F /  -15.4 °C 1001.2 in /  33900.6 hPa NW 18.5 mph /  29.8 km/h 18.5 mph /  29.8 km/h 68 % 0.0 in /  0 mm 32.0 W/m2 BKN
08:09 10.0 °F /  -12.2 °C 4.6 °F /  -15.2 °C 1001.6 in /  33914.2 hPa WNW 18.5 mph /  29.8 km/h 18.5 mph /  29.8 km/h 69 % 0.0 in /  0 mm 32.0 W/m2 BKN
08:14 10.0 °F /  -12.2 °C 4.3 °F /  -15.4 °C 1001.6 in /  33914.2 hPa NW 24.1 mph /  38.8 km/h 24.1 mph /  38.8 km/h 68 % 0.0 in /  0 mm 25.0 W/m2 BKN
08:19 10.0 °F /  -12.2 °C 4.6 °F /  -15.2 °C 1001.9 in /  33924.3 hPa NW 22.2 mph /  35.7 km/h 22.2 mph /  35.7 km/h 69 % 0.0 in /  0 mm 30.0 W/m2 BKN
08:24 9.4 °F /  -12.6 °C 4.1 °F /  -15.5 °C 1001.9 in /  33924.3 hPa NW 22.2 mph /  35.7 km/h 22.2 mph /  35.7 km/h 69 % 0.0 in /  0 mm 70.0 W/m2 FEW
08:29 10.0 °F /  -12.2 °C 4.3 °F /  -15.4 °C 1002.3 in /  33937.9 hPa NW 25.9 mph /  41.7 km/h 25.9 mph /  41.7 km/h 68 % 0.0 in /  0 mm 100.0 W/m2 CLR
08:34 10.6 °F /  -11.9 °C 4.7 °F /  -15.2 °C 1002.3 in /  33937.9 hPa NNW 22.2 mph /  35.7 km/h 22.2 mph /  35.7 km/h 67 % 0.0 in /  0 mm 116.0 W/m2 CLR
08:44 10.6 °F /  -11.9 °C 4.4 °F /  -15.3 °C 1002.6 in /  33948 hPa NW 20.4 mph /  32.8 km/h 20.4 mph /  32.8 km/h 66 % 0.0 in /  0 mm 153.0 W/m2 CLR
08:49 10.6 °F /  -11.9 °C 4.2 °F /  -15.4 °C 1002.6 in /  33948 hPa NNW 22.2 mph /  35.7 km/h 22.2 mph /  35.7 km/h 65 % 0.0 in /  0 mm 156.0 W/m2 CLR
08:54 11.1 °F /  -11.6 °C 5.0 °F /  -15 °C 1002.9 in /  33958.2 hPa North 29.6 mph /  47.6 km/h 29.6 mph /  47.6 km/h 66 % 0.0 in /  0 mm 193.0 W/m2 CLR
08:59 11.1 °F /  -11.6 °C 4.8 °F /  -15.1 °C 1002.9 in /  33958.2 hPa NW 33.8 mph /  54.4 km/h 33.8 mph /  54.4 km/h 65 % 0.0 in /  0 mm 211.0 W/m2 CLR
09:04 11.1 °F /  -11.6 °C 4.8 °F /  -15.1 °C 1002.9 in /  33958.2 hPa NW 31.5 mph /  50.7 km/h 31.5 mph /  50.7 km/h 65 % 0.0 in /  0 mm 230.0 W/m2 CLR
09:09 11.1 °F /  -11.6 °C 4.8 °F /  -15.1 °C 1003.3 in /  33971.7 hPa NW 27.4 mph /  44.1 km/h 27.4 mph /  44.1 km/h 65 % 0.0 in /  0 mm 251.0 W/m2 CLR
09:14 11.1 °F /  -11.6 °C 4.6 °F /  -15.2 °C 1003.3 in /  33971.7 hPa NNW 24.1 mph /  38.8 km/h 24.1 mph /  38.8 km/h 64 % 0.0 in /  0 mm 267.0 W/m2 CLR
09:19 11.7 °F /  -11.3 °C 4.8 °F /  -15.1 °C 1002.9 in /  33958.2 hPa NW 24.1 mph /  38.8 km/h 24.1 mph /  38.8 km/h 63 % 0.0 in /  0 mm 281.0 W/m2 CLR
09:24 11.7 °F /  -11.3 °C 5.1 °F /  -14.9 °C 1003.3 in /  33971.7 hPa WNW 18.5 mph /  29.8 km/h 18.5 mph /  29.8 km/h 64 % 0.0 in /  0 mm 297.0 W/m2 CLR
09:29 11.7 °F /  -11.3 °C 5.1 °F /  -14.9 °C 1003.3 in /  33971.7 hPa NW 27.8 mph /  44.7 km/h 27.8 mph /  44.7 km/h 64 % 0.0 in /  0 mm 311.0 W/m2 CLR
09:34 11.7 °F /  -11.3 °C 4.8 °F /  -15.1 °C 1003.3 in /  33971.7 hPa NW 29.6 mph /  47.6 km/h 29.6 mph /  47.6 km/h 63 % 0.0 in /  0 mm 329.0 W/m2 CLR
09:39 11.7 °F /  -11.3 °C 4.8 °F /  -15.1 °C 1003.3 in /  33971.7 hPa NW 25.9 mph /  41.7 km/h 25.9 mph /  41.7 km/h 63 % 0.0 in /  0 mm 345.0 W/m2 CLR
09:44 11.7 °F /  -11.3 °C 4.8 °F /  -15.1 °C 1003.3 in /  33971.7 hPa WNW 27.4 mph /  44.1 km/h 27.4 mph /  44.1 km/h 63 % 0.0 in /  0 mm 359.0 W/m2 CLR
09:49 12.2 °F /  -11 °C 4.9 °F /  -15.1 °C 1003.3 in /  33971.7 hPa WNW 25.9 mph /  41.7 km/h 25.9 mph /  41.7 km/h 61 % 0.0 in /  0 mm 374.0 W/m2 CLR
09:54 12.2 °F /  -11 °C 4.9 °F /  -15.1 °C 1003.3 in /  33971.7 hPa NW 27.8 mph /  44.7 km/h 27.8 mph /  44.7 km/h 61 % 0.0 in /  0 mm 387.0 W/m2 CLR
09:59 12.2 °F /  -11 °C 4.9 °F /  -15.1 °C 1003.3 in /  33971.7 hPa NW 24.1 mph /  38.8 km/h 24.1 mph /  38.8 km/h 61 % 0.0 in /  0 mm 404.0 W/m2 CLR
10:04 12.2 °F /  -11 °C 4.9 °F /  -15.1 °C 1003.3 in /  33971.7 hPa NW 25.9 mph /  41.7 km/h 25.9 mph /  41.7 km/h 61 % 0.0 in /  0 mm 418.0 W/m2 CLR
10:10 12.8 °F /  -10.7 °C 5.4 °F /  -14.8 °C 1003.6 in /  33981.9 hPa WNW 22.5 mph /  36.2 km/h 22.5 mph /  36.2 km/h 61 % 0.0 in /  0 mm 431.0 W/m2 CLR
10:15 12.8 °F /  -10.7 °C 5.4 °F /  -14.8 °C 1003.6 in /  33981.9 hPa NW 27.8 mph /  44.7 km/h 27.8 mph /  44.7 km/h 61 % 0.0 in /  0 mm 446.0 W/m2 CLR
10:20 12.8 °F /  -10.7 °C 5.4 °F /  -14.8 °C 1003.6 in /  33981.9 hPa NW 24.1 mph /  38.8 km/h 24.1 mph /  38.8 km/h 61 % 0.0 in /  0 mm 459.0 W/m2 CLR
10:25 12.8 °F /  -10.7 °C 5.7 °F /  -14.6 °C 1003.6 in /  33981.9 hPa NNW 18.5 mph /  29.8 km/h 18.5 mph /  29.8 km/h 62 % 0.0 in /  0 mm 475.0 W/m2 CLR
10:30 13.3 °F /  -10.4 °C 6.2 °F /  -14.3 °C 1003.6 in /  33981.9 hPa NW 20.4 mph /  32.8 km/h 20.4 mph /  32.8 km/h 62 % 0.0 in /  0 mm 483.0 W/m2 CLR
10:35 13.9 °F /  -10.1 °C 6.9 °F /  -13.9 °C 1003.6 in /  33981.9 hPa NW 24.1 mph /  38.8 km/h 24.1 mph /  38.8 km/h 63 % 0.0 in /  0 mm 497.0 W/m2 CLR
10:40 13.9 °F /  -10.1 °C 6.7 °F /  -14.1 °C 1003.9 in /  33992.1 hPa North 22.2 mph /  35.7 km/h 22.2 mph /  35.7 km/h 62 % 0.0 in /  0 mm 520.0 W/m2 CLR
10:45 13.9 °F /  -10.1 °C 6.5 °F /  -14.2 °C 1003.6 in /  33981.9 hPa NNW 29.6 mph /  47.6 km/h 29.6 mph /  47.6 km/h 61 % 0.0 in /  0 mm 485.0 W/m2 CLR
10:50 14.4 °F /  -9.8 °C 7.0 °F /  -13.9 °C 1003.6 in /  33981.9 hPa NNW 31.5 mph /  50.7 km/h 31.5 mph /  50.7 km/h 61 % 0.0 in /  0 mm 531.0 W/m2 CLR
10:55 14.4 °F /  -9.8 °C 6.8 °F /  -14 °C 1003.9 in /  33992.1 hPa WNW 33.3 mph /  53.6 km/h 33.3 mph /  53.6 km/h 60 % 0.0 in /  0 mm 543.0 W/m2 CLR
11:00 14.4 °F /  -9.8 °C 6.0 °F /  -14.4 °C 1003.9 in /  33992.1 hPa NW 44.4 mph /  71.5 km/h 44.4 mph /  71.5 km/h 57 % 0.0 in /  0 mm 557.0 W/m2 CLR
11:05 15.0 °F /  -9.4 °C 6.3 °F /  -14.3 °C 1003.9 in /  33992.1 hPa WNW 25.9 mph /  41.7 km/h 25.9 mph /  41.7 km/h 56 % 0.0 in /  0 mm 570.0 W/m2 CLR
11:10 15.0 °F /  -9.4 °C 6.6 °F /  -14.1 °C 1003.9 in /  33992.1 hPa NW 27.8 mph /  44.7 km/h 27.8 mph /  44.7 km/h 57 % 0.0 in /  0 mm 584.0 W/m2 CLR
11:15 15.0 °F /  -9.4 °C 7.1 °F /  -13.8 °C 1003.9 in /  33992.1 hPa NNW 29.6 mph /  47.6 km/h 29.6 mph /  47.6 km/h 59 % 0.0 in /  0 mm 592.0 W/m2 CLR
11:20 15.0 °F /  -9.4 °C 7.1 °F /  -13.8 °C 1003.6 in /  33981.9 hPa NNW 29.0 mph /  46.7 km/h 29.0 mph /  46.7 km/h 59 % 0.0 in /  0 mm 613.0 W/m2 CLR
11:25 15.6 °F /  -9.1 °C 6.6 °F /  -14.1 °C 1003.6 in /  33981.9 hPa WNW 31.5 mph /  50.7 km/h 31.5 mph /  50.7 km/h 55 % 0.0 in /  0 mm 663.0 W/m2 CLR
11:30 16.1 °F /  -8.8 °C 6.8 °F /  -14 °C 1003.6 in /  33981.9 hPa West 27.8 mph /  44.7 km/h 27.8 mph /  44.7 km/h 54 % 0.0 in /  0 mm 738.0 W/m2 CLR
11:35 15.6 °F /  -9.1 °C 6.3 °F /  -14.3 °C 1003.9 in /  33992.1 hPa WNW 31.5 mph /  50.7 km/h 31.5 mph /  50.7 km/h 54 % 0.0 in /  0 mm 826.0 W/m2 CLR
11:40 15.6 °F /  -9.1 °C 5.7 °F /  -14.6 °C 1003.9 in /  33992.1 hPa WNW 20.4 mph /  32.8 km/h 20.4 mph /  32.8 km/h 52 % 0.0 in /  0 mm 722.0 W/m2 CLR
11:45 16.1 °F /  -8.8 °C 7.1 °F /  -13.8 °C 1003.9 in /  33992.1 hPa NW 25.9 mph /  41.7 km/h 25.9 mph /  41.7 km/h 55 % 0.0 in /  0 mm 311.0 W/m2 CLR
11:50 15.6 °F /  -9.1 °C 6.8 °F /  -14 °C 1004.3 in /  34005.6 hPa NNW 25.9 mph /  41.7 km/h 25.9 mph /  41.7 km/h 56 % 0.0 in /  0 mm 241.0 W/m2 CLR
11:55 16.1 °F /  -8.8 °C 7.6 °F /  -13.6 °C 1004.3 in /  34005.6 hPa NNW 25.9 mph /  41.7 km/h 25.9 mph /  41.7 km/h 57 % 0.0 in /  0 mm 745.0 W/m2 CLR
12:00 16.1 °F /  -8.8 °C 7.8 °F /  -13.4 °C 1004.3 in /  34005.6 hPa North 22.2 mph /  35.7 km/h 22.2 mph /  35.7 km/h 58 % 0.0 in /  0 mm 745.0 W/m2 CLR
12:05 15.6 °F /  -9.1 °C 6.8 °F /  -14 °C 1004.3 in /  34005.6 hPa NNW 27.8 mph /  44.7 km/h 27.8 mph /  44.7 km/h 56 % 0.0 in /  0 mm 229.0 W/m2 CLR
12:10 15.6 °F /  -9.1 °C 7.1 °F /  -13.8 °C 1004.3 in /  34005.6 hPa NW 25.9 mph /  41.7 km/h 25.9 mph /  41.7 km/h 57 % 0.0 in /  0 mm 821.0 W/m2 CLR
12:15 15.6 °F /  -9.1 °C 7.1 °F /  -13.8 °C 1004.3 in /  34005.6 hPa NW 25.9 mph /  41.7 km/h 25.9 mph /  41.7 km/h 57 % 0.0 in /  0 mm 812.0 W/m2 CLR
12:20 15.6 °F /  -9.1 °C 7.3 °F /  -13.7 °C 1004.3 in /  34005.6 hPa North 16.1 mph /  25.9 km/h 16.1 mph /  25.9 km/h 58 % 0.0 in /  0 mm 812.0 W/m2 CLR
12:25 16.1 °F /  -8.8 °C 7.6 °F /  -13.6 °C 1004.3 in /  34005.6 hPa NNW 20.4 mph /  32.8 km/h 20.4 mph /  32.8 km/h 57 % 0.0 in /  0 mm 798.0 W/m2 CLR
12:30 16.1 °F /  -8.8 °C 7.3 °F /  -13.7 °C 1004.3 in /  34005.6 hPa NW 24.1 mph /  38.8 km/h 24.1 mph /  38.8 km/h 56 % 0.0 in /  0 mm 798.0 W/m2 CLR
12:35 16.7 °F /  -8.5 °C 8.3 °F /  -13.2 °C 1004.3 in /  34005.6 hPa NW 17.7 mph /  28.5 km/h 17.7 mph /  28.5 km/h 58 % 0.0 in /  0 mm 842.0 W/m2 CLR
12:40 16.7 °F /  -8.5 °C 7.8 °F /  -13.4 °C 1004.3 in /  34005.6 hPa North 27.8 mph /  44.7 km/h 27.8 mph /  44.7 km/h 56 % 0.0 in /  0 mm 842.0 W/m2 CLR
12:45 16.7 °F /  -8.5 °C 7.8 °F /  -13.4 °C 1003.9 in /  33992.1 hPa North 19.3 mph /  31.1 km/h 19.3 mph /  31.1 km/h 56 % 0.0 in /  0 mm 773.0 W/m2 CLR
12:50 17.2 °F /  -8.2 °C 7.8 °F /  -13.4 °C 1003.9 in /  33992.1 hPa NNW 18.5 mph /  29.8 km/h 18.5 mph /  29.8 km/h 54 % 0.0 in /  0 mm 773.0 W/m2 CLR
12:55 16.1 °F /  -8.8 °C 6.5 °F /  -14.2 °C 1003.9 in /  33992.1 hPa NNW 22.2 mph /  35.7 km/h 22.2 mph /  35.7 km/h 53 % 0.0 in /  0 mm 250.0 W/m2 CLR
13:00 15.6 °F /  -9.1 °C 6.6 °F /  -14.1 °C 1003.9 in /  33992.1 hPa NNW 25.7 mph /  41.4 km/h 25.7 mph /  41.4 km/h 55 % 0.0 in /  0 mm 183.0 W/m2 CLR
13:05 15.6 °F /  -9.1 °C 6.6 °F /  -14.1 °C 1003.6 in /  33981.9 hPa North 20.4 mph /  32.8 km/h 20.4 mph /  32.8 km/h 55 % 0.0 in /  0 mm 107.0 W/m2 CLR
13:10 15.0 °F /  -9.4 °C 6.3 °F /  -14.3 °C 1003.6 in /  33981.9 hPa NNE 14.8 mph /  23.8 km/h 14.8 mph /  23.8 km/h 56 % 0.0 in /  0 mm 84.0 W/m2 CLR
13:15 16.1 °F /  -8.8 °C 7.3 °F /  -13.7 °C 1003.6 in /  33981.9 hPa NW 14.8 mph /  23.8 km/h 14.8 mph /  23.8 km/h 56 % 0.0 in /  0 mm 710.0 W/m2 CLR
13:20 16.7 °F /  -8.5 °C 7.3 °F /  -13.7 °C 1003.6 in /  33981.9 hPa North 22.2 mph /  35.7 km/h 22.2 mph /  35.7 km/h 54 % 0.0 in /  0 mm 715.0 W/m2 CLR
13:25 17.2 °F /  -8.2 °C 7.3 °F /  -13.7 °C 1003.6 in /  33981.9 hPa North 31.5 mph /  50.7 km/h 31.5 mph /  50.7 km/h 52 % 0.0 in /  0 mm 740.0 W/m2 CLR
13:31 17.8 °F /  -7.9 °C 7.8 °F /  -13.4 °C 1003.3 in /  33971.7 hPa North 22.2 mph /  35.7 km/h 22.2 mph /  35.7 km/h 52 % 0.0 in /  0 mm 666.0 W/m2 CLR
13:36 17.2 °F /  -8.2 °C 7.0 °F /  -13.9 °C 1003.6 in /  33981.9 hPa NW 24.1 mph /  38.8 km/h 24.1 mph /  38.8 km/h 51 % 0.0 in /  0 mm 731.0 W/m2 CLR
13:41 17.8 °F /  -7.9 °C 7.5 °F /  -13.6 °C 1003.3 in /  33971.7 hPa NW 24.1 mph /  38.8 km/h 24.1 mph /  38.8 km/h 51 % 0.0 in /  0 mm 722.0 W/m2 CLR
13:46 17.8 °F /  -7.9 °C 7.8 °F /  -13.4 °C 1003.3 in /  33971.7 hPa North 25.7 mph /  41.4 km/h 25.7 mph /  41.4 km/h 52 % 0.0 in /  0 mm 763.0 W/m2 CLR
13:51 17.8 °F /  -7.9 °C 7.2 °F /  -13.8 °C 1003.3 in /  33971.7 hPa NNW 29.6 mph /  47.6 km/h 29.6 mph /  47.6 km/h 50 % 0.0 in /  0 mm 729.0 W/m2 CLR
13:56 18.3 °F /  -7.6 °C 7.7 °F /  -13.5 °C 1002.9 in /  33958.2 hPa North 18.5 mph /  29.8 km/h 18.5 mph /  29.8 km/h 50 % 0.0 in /  0 mm 724.0 W/m2 CLR
14:01 17.8 °F /  -7.9 °C 6.9 °F /  -13.9 °C 1002.9 in /  33958.2 hPa NNE 37.0 mph /  59.5 km/h 37.0 mph /  59.5 km/h 49 % 0.0 in /  0 mm 823.0 W/m2 CLR
14:06 17.8 °F /  -7.9 °C 7.5 °F /  -13.6 °C 1002.9 in /  33958.2 hPa North 24.1 mph /  38.8 km/h 24.1 mph /  38.8 km/h 51 % 0.0 in /  0 mm 773.0 W/m2 CLR
14:11 17.8 °F /  -7.9 °C 7.2 °F /  -13.8 °C 1002.9 in /  33958.2 hPa NNW 31.5 mph /  50.7 km/h 31.5 mph /  50.7 km/h 50 % 0.0 in /  0 mm 693.0 W/m2 CLR
14:16 17.8 °F /  -7.9 °C 7.5 °F /  -13.6 °C 1002.9 in /  33958.2 hPa North 29.6 mph /  47.6 km/h 29.6 mph /  47.6 km/h 51 % 0.0 in /  0 mm 689.0 W/m2 CLR
14:21 18.3 °F /  -7.6 °C 7.4 °F /  -13.7 °C 1002.9 in /  33958.2 hPa NNW 33.3 mph /  53.6 km/h 33.3 mph /  53.6 km/h 49 % 0.0 in /  0 mm 708.0 W/m2 CLR
14:26 18.3 °F /  -7.6 °C 7.4 °F /  -13.7 °C 1002.6 in /  33948 hPa North 30.6 mph /  49.2 km/h 30.6 mph /  49.2 km/h 49 % 0.0 in /  0 mm 708.0 W/m2 CLR
14:31 17.8 °F /  -7.9 °C 6.3 °F /  -14.3 °C 1002.9 in /  33958.2 hPa North 42.6 mph /  68.6 km/h 42.6 mph /  68.6 km/h 47 % 0.0 in /  0 mm 700.0 W/m2 CLR
14:36 18.3 °F /  -7.6 °C 7.1 °F /  -13.8 °C 1002.6 in /  33948 hPa North 32.2 mph /  51.8 km/h 32.2 mph /  51.8 km/h 48 % 0.0 in /  0 mm 719.0 W/m2 CLR
14:41 18.3 °F /  -7.6 °C 6.8 °F /  -14 °C 1002.6 in /  33948 hPa North 27.8 mph /  44.7 km/h 27.8 mph /  44.7 km/h 47 % 0.0 in /  0 mm 737.0 W/m2 CLR
14:46 18.3 °F /  -7.6 °C 5.8 °F /  -14.6 °C 1002.6 in /  33948 hPa North 37.0 mph /  59.5 km/h 37.0 mph /  59.5 km/h 44 % 0.0 in /  0 mm 439.0 W/m2 CLR
14:51 18.3 °F /  -7.6 °C 5.5 °F /  -14.7 °C 1002.6 in /  33948 hPa NW 29.6 mph /  47.6 km/h 29.6 mph /  47.6 km/h 43 % 0.0 in /  0 mm 679.0 W/m2 CLR
14:56 18.3 °F /  -7.6 °C 5.8 °F /  -14.6 °C 1002.3 in /  33937.9 hPa NNW 31.5 mph /  50.7 km/h 31.5 mph /  50.7 km/h 44 % 0.0 in /  0 mm 642.0 W/m2 CLR
15:01 18.3 °F /  -7.6 °C 5.5 °F /  -14.7 °C 1002.3 in /  33937.9 hPa NW 25.9 mph /  41.7 km/h 25.9 mph /  41.7 km/h 43 % 0.0 in /  0 mm 554.0 W/m2 CLR
15:06 18.3 °F /  -7.6 °C 5.5 °F /  -14.7 °C 1002.3 in /  33937.9 hPa NW 20.4 mph /  32.8 km/h 20.4 mph /  32.8 km/h 43 % 0.0 in /  0 mm 619.0 W/m2 CLR
15:11 18.3 °F /  -7.6 °C 5.8 °F /  -14.6 °C 1002.6 in /  33948 hPa North 31.5 mph /  50.7 km/h 31.5 mph /  50.7 km/h 44 % 0.0 in /  0 mm 378.0 W/m2 CLR
15:16 17.8 °F /  -7.9 °C 5.3 °F /  -14.8 °C 1002.6 in /  33948 hPa North 31.5 mph /  50.7 km/h 31.5 mph /  50.7 km/h 44 % 0.0 in /  0 mm 473.0 W/m2 CLR
15:21 17.8 °F /  -7.9 °C 5.3 °F /  -14.8 °C 1002.6 in /  33948 hPa North 20.4 mph /  32.8 km/h 20.4 mph /  32.8 km/h 44 % 0.0 in /  0 mm 385.0 W/m2 CLR
15:26 17.8 °F /  -7.9 °C 5.3 °F /  -14.8 °C 1002.6 in /  33948 hPa North 20.4 mph /  32.8 km/h 20.4 mph /  32.8 km/h 44 % 0.0 in /  0 mm 380.0 W/m2 CLR
15:31 17.8 °F /  -7.9 °C 5.0 °F /  -15 °C 1002.6 in /  33948 hPa North 25.9 mph /  41.7 km/h 25.9 mph /  41.7 km/h 43 % 0.0 in /  0 mm 269.0 W/m2 CLR
15:36 17.8 °F /  -7.9 °C 4.7 °F /  -15.2 °C 1002.6 in /  33948 hPa NNW 25.9 mph /  41.7 km/h 25.9 mph /  41.7 km/h 42 % 0.0 in /  0 mm 323.0 W/m2 CLR
15:41 17.8 °F /  -7.9 °C 4.7 °F /  -15.2 °C 1002.6 in /  33948 hPa NNW 24.1 mph /  38.8 km/h 24.1 mph /  38.8 km/h 42 % 0.0 in /  0 mm 267.0 W/m2 CLR
15:46 17.8 °F /  -7.9 °C 4.7 °F /  -15.2 °C 1002.6 in /  33948 hPa NNW 3.7 mph /  6 km/h 3.7 mph /  6 km/h 42 % 0.0 in /  0 mm 388.0 W/m2 CLR
15:51 17.8 °F /  -7.9 °C 4.7 °F /  -15.2 °C 1002.6 in /  33948 hPa NNW 22.2 mph /  35.7 km/h 22.2 mph /  35.7 km/h 42 % 0.0 in /  0 mm 264.0 W/m2 CLR
15:56 17.8 °F /  -7.9 °C 4.0 °F /  -15.6 °C 1002.3 in /  33937.9 hPa NNW 14.8 mph /  23.8 km/h 14.8 mph /  23.8 km/h 40 % 0.0 in /  0 mm 258.0 W/m2 CLR
16:01 17.2 °F /  -8.2 °C 3.8 °F /  -15.7 °C 1002.3 in /  33937.9 hPa Calm     41 % 0.0 in /  0 mm 255.0 W/m2 CLR
16:06 17.2 °F /  -8.2 °C 4.5 °F /  -15.3 °C 1002.3 in /  33937.9 hPa NW 11.1 mph /  17.9 km/h 11.1 mph /  17.9 km/h 43 % 0.0 in /  0 mm 257.0 W/m2 CLR
16:11 17.2 °F /  -8.2 °C 4.2 °F /  -15.4 °C 1002.3 in /  33937.9 hPa North 14.8 mph /  23.8 km/h 14.8 mph /  23.8 km/h 42 % 0.0 in /  0 mm 265.0 W/m2 CLR
16:16 17.8 °F /  -7.9 °C 4.3 °F /  -15.4 °C 1002.3 in /  33937.9 hPa NNW 13.0 mph /  20.9 km/h 13.0 mph /  20.9 km/h 41 % 0.0 in /  0 mm 288.0 W/m2 CLR
16:21 17.8 °F /  -7.9 °C 5.0 °F /  -15 °C 1002.3 in /  33937.9 hPa North 13.0 mph /  20.9 km/h 13.0 mph /  20.9 km/h 43 % 0.0 in /  0 mm 315.0 W/m2 CLR
16:26 17.8 °F /  -7.9 °C 5.3 °F /  -14.8 °C 1002.3 in /  33937.9 hPa NNW 14.8 mph /  23.8 km/h 14.8 mph /  23.8 km/h 44 % 0.0 in /  0 mm 218.0 W/m2 CLR
16:31 17.8 °F /  -7.9 °C 5.0 °F /  -15 °C 1002.3 in /  33937.9 hPa NNW 18.5 mph /  29.8 km/h 18.5 mph /  29.8 km/h 43 % 0.0 in /  0 mm 258.0 W/m2 CLR
16:36 17.2 °F /  -8.2 °C 4.5 °F /  -15.3 °C 1002.3 in /  33937.9 hPa NNW 16.7 mph /  26.9 km/h 16.7 mph /  26.9 km/h 43 % 0.0 in /  0 mm 241.0 W/m2 CLR
16:41 17.2 °F /  -8.2 °C 4.5 °F /  -15.3 °C 1002.3 in /  33937.9 hPa Calm     43 % 0.0 in /  0 mm 179.0 W/m2 CLR
16:46 17.2 °F /  -8.2 °C 4.5 °F /  -15.3 °C 1002.3 in /  33937.9 hPa NNW 11.1 mph /  17.9 km/h 11.1 mph /  17.9 km/h 43 % 0.0 in /  0 mm 179.0 W/m2 CLR
16:51 17.2 °F /  -8.2 °C 4.8 °F /  -15.1 °C 1002.3 in /  33937.9 hPa NE 14.8 mph /  23.8 km/h 14.8 mph /  23.8 km/h 44 % 0.0 in /  0 mm 181.0 W/m2 CLR
16:56 16.7 °F /  -8.5 °C 4.7 °F /  -15.2 °C 1002.3 in /  33937.9 hPa ENE 9.3 mph /  15 km/h 9.3 mph /  15 km/h 45 % 0.0 in /  0 mm 149.0 W/m2 CLR
17:01 16.7 °F /  -8.5 °C 4.7 °F /  -15.2 °C 1002.6 in /  33948 hPa ENE 5.6 mph /  9 km/h 5.6 mph /  9 km/h 45 % 0.0 in /  0 mm 111.0 W/m2 CLR
17:06 16.1 °F /  -8.8 °C 3.8 °F /  -15.7 °C 1002.6 in /  33948 hPa Calm     44 % 0.0 in /  0 mm 77.0 W/m2 CLR
17:11 16.1 °F /  -8.8 °C 3.8 °F /  -15.7 °C 1002.3 in /  33937.9 hPa Calm     44 % 0.0 in /  0 mm 65.0 W/m2 FEW
17:16 16.1 °F /  -8.8 °C 4.2 °F /  -15.4 °C 1002.3 in /  33937.9 hPa Calm     45 % 0.0 in /  0 mm 69.0 W/m2 FEW
17:21 16.1 °F /  -8.8 °C 4.2 °F /  -15.4 °C 1002.3 in /  33937.9 hPa Calm     45 % 0.0 in /  0 mm 67.0 W/m2 FEW
17:26 16.1 °F /  -8.8 °C 4.5 °F /  -15.3 °C 1001.9 in /  33924.3 hPa Calm     46 % 0.0 in /  0 mm 83.0 W/m2 FEW
17:31 16.1 °F /  -8.8 °C 4.5 °F /  -15.3 °C 1001.9 in /  33924.3 hPa Calm     46 % 0.0 in /  0 mm 90.0 W/m2 FEW
17:36 16.1 °F /  -8.8 °C 4.8 °F /  -15.1 °C 1001.9 in /  33924.3 hPa Calm     47 % 0.0 in /  0 mm 84.0 W/m2 CLR
17:41 16.1 °F /  -8.8 °C 4.8 °F /  -15.1 °C 1002.3 in /  33937.9 hPa Calm     47 % 0.0 in /  0 mm 69.0 W/m2 FEW
17:46 15.6 °F /  -9.1 °C 4.6 °F /  -15.2 °C 1002.3 in /  33937.9 hPa Calm     48 % 0.0 in /  0 mm 53.0 W/m2 FEW
17:51 15.6 °F /  -9.1 °C 4.3 °F /  -15.4 °C 1001.9 in /  33924.3 hPa Calm     47 % 0.0 in /  0 mm 53.0 W/m2 SCT
17:56 15.6 °F /  -9.1 °C 4.3 °F /  -15.4 °C 1001.9 in /  33924.3 hPa Calm     47 % 0.0 in /  0 mm 54.0 W/m2 SCT
18:01 15.6 °F /  -9.1 °C 4.6 °F /  -15.2 °C 1002.3 in /  33937.9 hPa Calm     48 % 0.0 in /  0 mm 51.0 W/m2 SCT
18:06 15.0 °F /  -9.4 °C 4.1 °F /  -15.5 °C 1002.3 in /  33937.9 hPa Calm     48 % 0.0 in /  0 mm 35.0 W/m2 BKN
18:11 15.0 °F /  -9.4 °C 4.1 °F /  -15.5 °C 1002.3 in /  33937.9 hPa Calm     48 % 0.0 in /  0 mm 26.0 W/m2 BKN
18:16 14.4 °F /  -9.8 °C 3.8 °F /  -15.7 °C 1002.3 in /  33937.9 hPa Calm     49 % 0.0 in /  0 mm 25.0 W/m2 BKN
18:22 14.4 °F /  -9.8 °C 3.8 °F /  -15.7 °C 1002.3 in /  33937.9 hPa Calm     49 % 0.0 in /  0 mm 26.0 W/m2 BKN
18:27 14.4 °F /  -9.8 °C 4.2 °F /  -15.4 °C 1002.3 in /  33937.9 hPa Calm     50 % 0.0 in /  0 mm 25.0 W/m2 BKN
18:32 13.9 °F /  -10.1 °C 3.6 °F /  -15.8 °C 1002.3 in /  33937.9 hPa Calm     50 % 0.0 in /  0 mm 19.0 W/m2 BKN
18:37 13.9 °F /  -10.1 °C 3.9 °F /  -15.6 °C 1002.6 in /  33948 hPa Calm     51 % 0.0 in /  0 mm 14.0 W/m2 BKN
18:42 13.3 °F /  -10.4 °C 3.7 °F /  -15.7 °C 1002.3 in /  33937.9 hPa Calm     52 % 0.0 in /  0 mm 7.0 W/m2 BKN
18:47 13.3 °F /  -10.4 °C 3.4 °F /  -15.9 °C 1002.3 in /  33937.9 hPa South 7.4 mph /  11.9 km/h 7.4 mph /  11.9 km/h 51 % 0.0 in /  0 mm 0.0 W/m2 OVC
18:52 13.3 °F /  -10.4 °C 3.7 °F /  -15.7 °C 1002.3 in /  33937.9 hPa South 3.7 mph /  6 km/h 3.7 mph /  6 km/h 52 % 0.0 in /  0 mm 0.0 W/m2 OVC
18:57 13.3 °F /  -10.4 °C 3.7 °F /  -15.7 °C 1002.3 in /  33937.9 hPa South 3.7 mph /  6 km/h 3.7 mph /  6 km/h 52 % 0.0 in /  0 mm 0.0 W/m2 OVC
19:02 13.3 °F /  -10.4 °C 3.7 °F /  -15.7 °C 1002.3 in /  33937.9 hPa South 3.7 mph /  6 km/h 3.7 mph /  6 km/h 52 % 0.0 in /  0 mm 0.0 W/m2 CLR
19:07 12.8 °F /  -10.7 °C 3.2 °F /  -16 °C 1002.6 in /  33948 hPa SSW 6.4 mph /  10.3 km/h 6.4 mph /  10.3 km/h 52 % 0.0 in /  0 mm 0.0 W/m2 CLR
19:12 12.2 °F /  -11 °C 2.7 °F /  -16.3 °C 1002.6 in /  33948 hPa SSW 1.9 mph /  3.1 km/h   52 % 0.0 in /  0 mm 0.0 W/m2 CLR
19:17 11.7 °F /  -11.3 °C 2.1 °F /  -16.6 °C 1002.6 in /  33948 hPa SSW 5.6 mph /  9 km/h 5.6 mph /  9 km/h 52 % 0.0 in /  0 mm 0.0 W/m2 CLR
19:22 11.7 °F /  -11.3 °C 2.4 °F /  -16.4 °C 1002.6 in /  33948 hPa South 6.4 mph /  10.3 km/h 6.4 mph /  10.3 km/h 53 % 0.0 in /  0 mm 0.0 W/m2 CLR
19:27 11.7 °F /  -11.3 °C 2.1 °F /  -16.6 °C 1002.6 in /  33948 hPa South 5.6 mph /  9 km/h 5.6 mph /  9 km/h 52 % 0.0 in /  0 mm 0.0 W/m2 CLR
19:32 11.7 °F /  -11.3 °C 2.4 °F /  -16.4 °C 1002.6 in /  33948 hPa South 11.1 mph /  17.9 km/h 11.1 mph /  17.9 km/h 53 % 0.0 in /  0 mm 0.0 W/m2 CLR
19:37 11.7 °F /  -11.3 °C 2.1 °F /  -16.6 °C 1002.6 in /  33948 hPa South 5.6 mph /  9 km/h 5.6 mph /  9 km/h 52 % 0.0 in /  0 mm 0.0 W/m2 CLR
19:42 11.7 °F /  -11.3 °C 2.4 °F /  -16.4 °C 1002.6 in /  33948 hPa South 5.6 mph /  9 km/h 5.6 mph /  9 km/h 53 % 0.0 in /  0 mm 0.0 W/m2 CLR
19:47 11.7 °F /  -11.3 °C 2.4 °F /  -16.4 °C 1002.6 in /  33948 hPa South 5.6 mph /  9 km/h 5.6 mph /  9 km/h 53 % 0.0 in /  0 mm 0.0 W/m2 CLR
19:52 11.1 °F /  -11.6 °C 2.2 °F /  -16.6 °C 1002.6 in /  33948 hPa South 5.6 mph /  9 km/h 5.6 mph /  9 km/h 54 % 0.0 in /  0 mm 0.0 W/m2 CLR
19:57 11.1 °F /  -11.6 °C 2.2 °F /  -16.6 °C 1002.6 in /  33948 hPa South 3.7 mph /  6 km/h 3.7 mph /  6 km/h 54 % 0.0 in /  0 mm 0.0 W/m2 CLR
20:02 10.6 °F /  -11.9 °C 1.6 °F /  -16.9 °C 1002.6 in /  33948 hPa Calm     54 % 0.0 in /  0 mm 0.0 W/m2 CLR
20:07 10.0 °F /  -12.2 °C 1.6 °F /  -16.9 °C 1002.3 in /  33937.9 hPa Calm     56 % 0.0 in /  0 mm 0.0 W/m2 CLR
20:12 9.4 °F /  -12.6 °C 1.3 °F /  -17.1 °C 1002.3 in /  33937.9 hPa Calm     57 % 0.0 in /  0 mm 0.0 W/m2 CLR
20:17 9.4 °F /  -12.6 °C 1.6 °F /  -16.9 °C 1002.3 in /  33937.9 hPa Calm     58 % 0.0 in /  0 mm 0.0 W/m2 CLR
20:22 8.9 °F /  -12.8 °C 0.8 °F /  -17.3 °C 1001.9 in /  33924.3 hPa Calm     57 % 0.0 in /  0 mm 0.0 W/m2 CLR
20:27 8.9 °F /  -12.8 °C 1.3 °F /  -17.1 °C 1001.9 in /  33924.3 hPa Calm     59 % 0.0 in /  0 mm 0.0 W/m2 CLR
20:32 8.3 °F /  -13.2 °C 1.2 °F /  -17.1 °C 1002.3 in /  33937.9 hPa Calm     61 % 0.0 in /  0 mm 0.0 W/m2 CLR
20:37 8.3 °F /  -13.2 °C 1.2 °F /  -17.1 °C 1001.9 in /  33924.3 hPa Calm     61 % 0.0 in /  0 mm 0.0 W/m2 CLR
20:42 8.3 °F /  -13.2 °C 1.0 °F /  -17.2 °C 1001.9 in /  33924.3 hPa Calm     60 % 0.0 in /  0 mm 0.0 W/m2 CLR
20:47 7.8 °F /  -13.4 °C 0.5 °F /  -17.5 °C 1001.9 in /  33924.3 hPa Calm     60 % 0.0 in /  0 mm 0.0 W/m2 CLR
20:52 7.8 °F /  -13.4 °C 0.7 °F /  -17.4 °C 1001.9 in /  33924.3 hPa Calm     61 % 0.0 in /  0 mm 0.0 W/m2 CLR
20:57 7.8 °F /  -13.4 °C 0.7 °F /  -17.4 °C 1001.9 in /  33924.3 hPa Calm     61 % 0.0 in /  0 mm 0.0 W/m2 CLR
21:02 7.8 °F /  -13.4 °C 0.9 °F /  -17.3 °C 1001.9 in /  33924.3 hPa Calm     62 % 0.0 in /  0 mm 0.0 W/m2 CLR
21:07 7.8 °F /  -13.4 °C 1.2 °F /  -17.1 °C 1001.9 in /  33924.3 hPa Calm     63 % 0.0 in /  0 mm 0.0 W/m2 CLR
21:12 7.8 °F /  -13.4 °C 1.4 °F /  -17 °C 1001.9 in /  33924.3 hPa Calm     64 % 0.0 in /  0 mm 0.0 W/m2 CLR
21:17 7.8 °F /  -13.4 °C 1.6 °F /  -16.9 °C 1002.3 in /  33937.9 hPa Calm     65 % 0.0 in /  0 mm 0.0 W/m2 CLR
21:22 7.8 °F /  -13.4 °C 1.8 °F /  -16.8 °C 1001.9 in /  33924.3 hPa Calm     66 % 0.0 in /  0 mm 0.0 W/m2 CLR
21:27 7.2 °F /  -13.8 °C 1.5 °F /  -16.9 °C 1002.3 in /  33937.9 hPa Calm     67 % 0.0 in /  0 mm 0.0 W/m2 CLR
21:32 7.2 °F /  -13.8 °C 1.7 °F /  -16.8 °C 1002.3 in /  33937.9 hPa Calm     68 % 0.0 in /  0 mm 0.0 W/m2 CLR
21:37 7.2 °F /  -13.8 °C 1.7 °F /  -16.8 °C 1002.3 in /  33937.9 hPa Calm     68 % 0.0 in /  0 mm 0.0 W/m2 CLR
21:42 7.2 °F /  -13.8 °C 1.5 °F /  -16.9 °C 1002.3 in /  33937.9 hPa Calm     67 % 0.0 in /  0 mm 0.0 W/m2 CLR
21:48 7.2 °F /  -13.8 °C 1.7 °F /  -16.8 °C 1002.3 in /  33937.9 hPa Calm     68 % 0.0 in /  0 mm 0.0 W/m2 CLR
21:53 7.2 °F /  -13.8 °C 1.7 °F /  -16.8 °C 1002.3 in /  33937.9 hPa Calm     68 % 0.0 in /  0 mm 0.0 W/m2 CLR
21:58 7.2 °F /  -13.8 °C 1.5 °F /  -16.9 °C 1002.3 in /  33937.9 hPa Calm     67 % 0.0 in /  0 mm 0.0 W/m2 CLR
22:03 7.2 °F /  -13.8 °C 1.7 °F /  -16.8 °C 1002.3 in /  33937.9 hPa Calm     68 % 0.0 in /  0 mm 0.0 W/m2 CLR
22:08 7.2 °F /  -13.8 °C 1.9 °F /  -16.7 °C 1002.3 in /  33937.9 hPa Calm     69 % 0.0 in /  0 mm 0.0 W/m2 CLR
22:13 7.2 °F /  -13.8 °C 1.7 °F /  -16.8 °C 1001.9 in /  33924.3 hPa Calm     68 % 0.0 in /  0 mm 0.0 W/m2 CLR
22:18 7.2 °F /  -13.8 °C 1.5 °F /  -16.9 °C 1001.9 in /  33924.3 hPa Calm     67 % 0.0 in /  0 mm 0.0 W/m2 CLR
22:23 7.2 °F /  -13.8 °C 1.9 °F /  -16.7 °C 1001.9 in /  33924.3 hPa Calm     69 % 0.0 in /  0 mm 0.0 W/m2 CLR
22:28 7.2 °F /  -13.8 °C 2.1 °F /  -16.6 °C 1001.9 in /  33924.3 hPa Calm     70 % 0.0 in /  0 mm 0.0 W/m2 CLR
22:33 7.2 °F /  -13.8 °C 2.3 °F /  -16.5 °C 1001.9 in /  33924.3 hPa Calm     71 % 0.0 in /  0 mm 0.0 W/m2 CLR
22:38 7.2 °F /  -13.8 °C 2.1 °F /  -16.6 °C 1001.6 in /  33914.2 hPa Calm     70 % 0.0 in /  0 mm 0.0 W/m2 CLR
22:43 7.2 °F /  -13.8 °C 2.5 °F /  -16.4 °C 1001.6 in /  33914.2 hPa Calm     72 % 0.0 in /  0 mm 0.0 W/m2 CLR
22:48 7.2 °F /  -13.8 °C 2.5 °F /  -16.4 °C 1001.6 in /  33914.2 hPa Calm     72 % 0.0 in /  0 mm 0.0 W/m2 CLR
22:53 7.2 °F /  -13.8 °C 2.7 °F /  -16.3 °C 1001.6 in /  33914.2 hPa Calm     73 % 0.0 in /  0 mm 0.0 W/m2 CLR
22:58 7.2 °F /  -13.8 °C 3.1 °F /  -16.1 °C 1001.2 in /  33900.6 hPa Calm     75 % 0.0 in /  0 mm 0.0 W/m2 CLR
23:03 7.2 °F /  -13.8 °C 3.3 °F /  -15.9 °C 1001.2 in /  33900.6 hPa Calm     76 % 0.0 in /  0 mm 0.0 W/m2 CLR
23:08 7.2 °F /  -13.8 °C 3.3 °F /  -15.9 °C 1001.2 in /  33900.6 hPa Calm     76 % 0.0 in /  0 mm 0.0 W/m2 CLR
23:13 7.2 °F /  -13.8 °C 3.3 °F /  -15.9 °C 1001.2 in /  33900.6 hPa Calm     76 % 0.0 in /  0 mm 0.0 W/m2 CLR
23:18 7.2 °F /  -13.8 °C 3.3 °F /  -15.9 °C 1001.2 in /  33900.6 hPa Calm     76 % 0.0 in /  0 mm 0.0 W/m2 CLR
23:23 7.2 °F /  -13.8 °C 3.4 °F /  -15.9 °C 1001.2 in /  33900.6 hPa Calm     77 % 0.0 in /  0 mm 0.0 W/m2 CLR
23:28 7.2 °F /  -13.8 °C 3.4 °F /  -15.9 °C 1001.2 in /  33900.6 hPa Calm     77 % 0.0 in /  0 mm 0.0 W/m2 CLR
23:33 6.7 °F /  -14.1 °C 3.1 °F /  -16.1 °C 1001.2 in /  33900.6 hPa Calm     78 % 0.0 in /  0 mm 0.0 W/m2 CLR
23:38 7.2 °F /  -13.8 °C 3.7 °F /  -15.7 °C 1001.2 in /  33900.6 hPa Calm     78 % 0.0 in /  0 mm 0.0 W/m2 CLR
23:43 7.2 °F /  -13.8 °C 3.4 °F /  -15.9 °C 1001.2 in /  33900.6 hPa Calm     77 % 0.0 in /  0 mm 0.0 W/m2 CLR
23:48 7.2 °F /  -13.8 °C 3.4 °F /  -15.9 °C 1001.2 in /  33900.6 hPa Calm     77 % 0.0 in /  0 mm 0.0 W/m2 CLR
23:53 7.8 °F /  -13.4 °C 4.0 °F /  -15.6 °C 1001.2 in /  33900.6 hPa Calm     77 % 0.0 in /  0 mm 0.0 W/m2 CLR
23:58 7.2 °F /  -13.8 °C 3.4 °F /  -15.9 °C 1001.2 in /  33900.6 hPa Calm     77 % 0.0 in /  0 mm 0.0 W/m2 CLR
Lo Temps de Massalio
Compliments of Weather Underground - 1.25 mb